Berlik, Kazakhstan
Current Conditions -  °F | °C
As of 7:00 PM on Thursday 30 Oct 2014 (Local Time) from UACC Reporting Station
Overcast Overcast  
Wind Chill: 19°   Ceiling: 400
Heat Index: 30°   Visibility: 6mi
Dew Point: 30°   Wind: 16mph
Humidity: 100%   Direction: 230°SW
Pressure: 30.36"   Gusts: NA
Location:  49.88°N, 69.52°E
Report Text: UACC 301300Z 23007MPS 9999 OVC004 M01/M01 Q1028 R22/1/0065NOSIG RMK QBB130 QFE740/0986
Loading
Personal Weather Stations






























Interactive Weather Map
Tropical Storm Tracking
New forecast layout! Learn more

10-Day Weather Forecast

Advertisements
Track Severe Weather on mobile